createdAt,value
2022-08-21T00:03:19.527Z,23.50
2022-08-21T00:08:23.053Z,26.53
2022-08-21T00:13:27.596Z,24.50
2022-08-21T00:18:30.842Z,26.73
2022-08-21T00:23:36.126Z,27.30
2022-08-21T00:28:40.656Z,29.23
2022-08-21T00:33:43.815Z,22.23
2022-08-21T00:38:47.214Z,25.93
2022-08-21T00:43:52.660Z,28.30
2022-08-21T00:48:57.173Z,31.93
2022-08-21T00:54:04.093Z,33.07
2022-08-21T00:59:09.220Z,34.17
2022-08-21T01:04:13.298Z,33.50
2022-08-21T01:09:16.938Z,31.00
2022-08-21T01:14:21.729Z,31.00
2022-08-21T01:19:25.481Z,35.80
2022-08-21T01:24:32.584Z,33.67
2022-08-21T01:29:40.303Z,26.27
2022-08-21T01:34:46.649Z,23.67
2022-08-21T01:39:51.237Z,19.40
2022-08-21T01:44:54.812Z,17.60
2022-08-21T01:49:59.412Z,10.40
2022-08-21T01:55:04.573Z,9.67
2022-08-21T02:00:12.181Z,9.20
2022-08-21T02:05:15.869Z,9.50
2022-08-21T02:10:23.824Z,8.87
2022-08-21T02:15:26.913Z,9.40
2022-08-21T02:20:32.479Z,9.50
2022-08-21T02:25:37.424Z,10.13
2022-08-21T02:30:46.063Z,9.53
2022-08-21T02:35:50.940Z,9.23
2022-08-21T02:40:58.998Z,10.00
2022-08-21T02:46:02.224Z,9.40
2022-08-21T02:51:08.470Z,9.53
2022-08-21T02:56:15.436Z,9.77
2022-08-21T03:01:18.527Z,10.20
2022-08-21T03:06:23.312Z,9.73
2022-08-21T03:11:27.889Z,9.10
2022-08-21T03:16:34.901Z,11.00
2022-08-21T03:21:38.454Z,9.80
2022-08-21T03:26:42.915Z,9.67
2022-08-21T03:31:46.299Z,10.10
2022-08-21T03:36:49.898Z,9.93
2022-08-21T03:41:55.157Z,9.57
2022-08-21T03:46:58.588Z,12.20
2022-08-21T03:52:01.957Z,11.60
2022-08-21T03:57:06.837Z,10.17
2022-08-21T04:02:09.903Z,10.77
2022-08-21T04:07:13.052Z,13.40
2022-08-21T04:12:17.514Z,13.60
2022-08-21T04:17:20.723Z,14.43
2022-08-21T04:22:23.827Z,15.50
2022-08-21T04:27:28.321Z,17.00
2022-08-21T04:32:31.798Z,15.07
2022-08-21T04:37:35.004Z,15.73
2022-08-21T04:42:51.505Z,15.30
2022-08-21T04:47:56.456Z,14.77
2022-08-21T04:53:00.515Z,21.43
2022-08-21T04:58:05.083Z,18.77
2022-08-21T05:03:11.861Z,20.57
2022-08-21T05:08:18.103Z,17.47
2022-08-21T05:13:23.349Z,17.90
2022-08-21T05:18:26.522Z,18.63
2022-08-21T05:23:29.606Z,16.20
2022-08-21T05:28:34.069Z,17.97
2022-08-21T05:33:37.108Z,19.17
2022-08-21T05:38:44.492Z,18.83
2022-08-21T05:43:49.700Z,16.60
2022-08-21T05:48:52.771Z,17.57
2022-08-21T05:53:55.897Z,18.20
2022-08-21T05:59:00.446Z,19.87
2022-08-21T06:04:03.984Z,21.50
2022-08-21T06:09:07.396Z,20.53
2022-08-21T06:14:12.482Z,18.83
2022-08-21T06:19:15.682Z,20.27
2022-08-21T06:24:18.735Z,21.93
2022-08-21T06:29:23.697Z,22.40
2022-08-21T06:34:26.763Z,22.40
2022-08-21T06:39:30.910Z,22.20
2022-08-21T06:44:37.223Z,22.60
2022-08-21T06:49:40.616Z,22.17
2022-08-21T06:54:44.036Z,21.73
2022-08-21T06:59:49.116Z,20.37
2022-08-21T07:04:52.781Z,20.80
2022-08-21T07:09:55.939Z,21.37
2022-08-21T07:15:00.594Z,23.57
2022-08-21T07:20:04.970Z,21.40
2022-08-21T07:25:08.902Z,22.93
2022-08-21T07:30:14.067Z,23.60
2022-08-21T07:35:17.478Z,20.60
2022-08-21T07:40:21.394Z,20.13
2022-08-21T07:45:26.930Z,22.20
2022-08-21T07:50:30.008Z,21.50
2022-08-21T07:55:33.394Z,22.37
2022-08-21T08:00:39.047Z,19.43
2022-08-21T08:05:42.645Z,17.60
2022-08-21T08:10:46.618Z,17.23
2022-08-21T08:15:51.567Z,18.37
2022-08-21T08:20:54.631Z,16.83
2022-08-21T08:25:57.965Z,16.17
2022-08-21T08:31:03.061Z,16.50
2022-08-21T08:36:07.936Z,17.57
2022-08-21T08:41:15.053Z,16.27
2022-08-21T08:46:28.283Z,14.67
2022-08-21T08:51:42.083Z,14.80
2022-08-21T08:56:46.116Z,15.30
2022-08-21T09:01:51.491Z,13.97
2022-08-21T09:07:07.361Z,12.10
2022-08-21T09:12:17.888Z,10.80
2022-08-21T09:17:38.548Z,10.30
2022-08-21T09:22:49.048Z,9.40
2022-08-21T09:27:52.699Z,8.00
2022-08-21T09:32:57.863Z,7.47
2022-08-21T09:38:03.978Z,5.00
2022-08-21T09:43:18.137Z,5.17
2022-08-21T09:48:26.263Z,5.20
2022-08-21T09:53:35.686Z,4.60
2022-08-21T09:58:42.525Z,4.70
2022-08-21T10:03:47.815Z,5.10
2022-08-21T10:08:50.952Z,4.60
2022-08-21T10:14:07.927Z,4.43
2022-08-21T10:19:24.560Z,3.87
2022-08-21T10:24:33.975Z,4.30
2022-08-21T10:29:54.045Z,4.47
2022-08-21T10:35:08.821Z,4.63
2022-08-21T10:40:22.093Z,5.27
2022-08-21T10:45:38.619Z,4.80
2022-08-21T10:50:50.893Z,4.37
2022-08-21T10:55:58.757Z,4.10
2022-08-21T11:01:09.901Z,4.60
2022-08-21T11:06:18.485Z,4.40
2022-08-21T11:11:29.458Z,4.40
2022-08-21T11:16:43.447Z,4.00
2022-08-21T11:21:54.608Z,3.60
2022-08-21T11:27:05.999Z,3.17
2022-08-21T11:32:29.931Z,3.20
2022-08-21T11:37:49.095Z,3.60
2022-08-21T11:42:59.816Z,3.20
2022-08-21T11:48:13.192Z,3.30
2022-08-21T11:53:24.519Z,4.30
2022-08-21T11:58:32.436Z,2.97
2022-08-21T12:03:37.507Z,3.17
2022-08-21T12:08:45.508Z,3.83
2022-08-21T12:13:57.960Z,3.17
2022-08-21T12:19:09.713Z,3.83
2022-08-21T12:24:23.119Z,3.43
2022-08-21T12:29:33.672Z,3.40
2022-08-21T12:34:40.996Z,3.80
2022-08-21T12:39:48.851Z,4.40
2022-08-21T12:44:56.219Z,3.77
2022-08-21T12:50:08.058Z,4.03
2022-08-21T12:55:16.823Z,3.30
2022-08-21T13:00:24.294Z,3.57
2022-08-21T13:05:33.045Z,3.37
2022-08-21T13:10:39.556Z,3.30
2022-08-21T13:15:47.422Z,2.87
2022-08-21T13:20:51.506Z,3.67
2022-08-21T13:25:57.846Z,3.33
2022-08-21T13:31:02.614Z,3.90
2022-08-21T13:36:11.301Z,2.70
2022-08-21T13:41:24.672Z,2.83
2022-08-21T13:46:33.070Z,3.00
2022-08-21T13:51:37.477Z,3.40
2022-08-21T13:56:47.305Z,2.90
2022-08-21T14:01:55.711Z,2.93
2022-08-21T14:06:59.228Z,3.03
2022-08-21T14:12:23.546Z,2.83
2022-08-21T14:17:34.527Z,2.87
2022-08-21T14:22:42.493Z,2.70
2022-08-21T14:27:53.204Z,2.53
2022-08-21T14:32:56.506Z,2.90
2022-08-21T14:37:59.597Z,2.53
2022-08-21T14:43:04.132Z,2.47
2022-08-21T14:48:07.322Z,2.50
2022-08-21T14:53:11.424Z,3.50
2022-08-21T14:58:16.381Z,2.57
2022-08-21T15:03:19.846Z,2.40
2022-08-21T15:08:22.985Z,2.40
2022-08-21T15:13:28.195Z,2.47
2022-08-21T15:18:32.719Z,2.30
2022-08-21T15:23:36.009Z,2.70
2022-08-21T15:28:44.589Z,2.27
2022-08-21T15:33:50.620Z,2.27
2022-08-21T15:38:53.821Z,2.53
2022-08-21T15:43:58.359Z,4.23
2022-08-21T15:49:01.591Z,3.50
2022-08-21T15:54:05.376Z,2.47
2022-08-21T15:59:14.464Z,2.43
2022-08-21T16:04:24.325Z,2.30
2022-08-21T16:09:27.498Z,3.33
2022-08-21T16:14:32.978Z,16.20
2022-08-21T16:19:38.128Z,9.20
2022-08-21T16:24:41.275Z,5.40
2022-08-21T16:29:47.554Z,3.30
2022-08-21T16:34:51.274Z,2.63
2022-08-21T16:39:54.493Z,2.37
2022-08-21T16:44:59.591Z,2.57
2022-08-21T16:50:02.929Z,2.80
2022-08-21T16:55:06.997Z,2.40
2022-08-21T17:00:13.753Z,3.23
2022-08-21T17:05:17.545Z,2.80
2022-08-21T17:10:21.668Z,2.70
2022-08-21T17:15:29.425Z,3.13
2022-08-21T17:20:33.223Z,3.27
2022-08-21T17:25:39.910Z,3.10
2022-08-21T17:30:46.256Z,3.10
2022-08-21T17:35:49.931Z,4.87
2022-08-21T17:40:53.389Z,5.50
2022-08-21T17:45:58.218Z,4.17
2022-08-21T17:51:01.820Z,4.90
2022-08-21T17:56:06.202Z,3.50
2022-08-21T18:01:12.593Z,4.20
2022-08-21T18:06:18.013Z,3.40
2022-08-21T18:11:25.318Z,3.20
2022-08-21T18:16:31.814Z,3.00
2022-08-21T18:21:35.163Z,3.00
2022-08-21T18:26:41.005Z,4.10
2022-08-21T18:31:47.201Z,4.77
2022-08-21T18:36:51.320Z,4.03
2022-08-21T18:41:56.056Z,3.50
2022-08-21T18:47:04.969Z,3.17
2022-08-21T18:52:08.284Z,3.67
2022-08-21T18:57:14.150Z,3.27
2022-08-21T19:02:19.346Z,3.20
2022-08-21T19:07:22.477Z,3.87
2022-08-21T19:12:29.642Z,3.90
2022-08-21T19:17:35.625Z,4.03
2022-08-21T19:22:39.121Z,4.20
2022-08-21T19:27:43.875Z,4.93
2022-08-21T19:32:49.865Z,4.67
2022-08-21T19:37:53.209Z,4.80
2022-08-21T19:42:56.898Z,4.10
2022-08-21T19:48:05.512Z,4.13
2022-08-21T19:58:37.035Z,3.97
2022-08-21T20:03:43.207Z,4.37
2022-08-21T20:08:48.298Z,4.00
2022-08-21T20:13:51.626Z,3.80
2022-08-21T20:18:57.328Z,4.80
2022-08-21T20:24:00.995Z,4.30
2022-08-21T20:29:05.506Z,4.00
2022-08-21T20:34:11.697Z,4.40
2022-08-21T20:39:19.080Z,4.23
2022-08-21T20:44:30.561Z,4.40
2022-08-21T20:49:39.689Z,5.13
2022-08-21T20:54:50.154Z,4.80
2022-08-21T20:59:58.046Z,4.50
2022-08-21T21:05:06.907Z,4.57
2022-08-21T21:10:19.508Z,4.93
2022-08-21T21:15:29.319Z,5.17
2022-08-21T21:20:37.979Z,4.30
2022-08-21T21:25:49.327Z,4.63
2022-08-21T21:30:57.795Z,4.10
2022-08-21T21:36:13.607Z,4.40
2022-08-21T21:41:25.504Z,4.60
2022-08-21T21:46:38.746Z,4.90
2022-08-21T21:52:00.437Z,4.67
2022-08-21T21:57:11.946Z,4.70
2022-08-21T22:02:29.224Z,4.23
2022-08-21T22:07:40.674Z,4.77
2022-08-21T22:12:53.811Z,5.10
2022-08-21T22:18:07.760Z,4.27
2022-08-21T22:23:19.077Z,5.23
2022-08-21T22:28:26.697Z,5.27
2022-08-21T22:33:36.427Z,5.70
2022-08-21T22:38:43.988Z,4.53
2022-08-21T22:43:56.649Z,4.90
2022-08-21T22:49:05.872Z,5.20
2022-08-21T22:54:16.663Z,4.50
2022-08-21T22:59:29.393Z,5.10
2022-08-21T23:04:33.775Z,5.10
2022-08-21T23:09:47.269Z,5.50
2022-08-21T23:20:26.745Z,5.07
2022-08-21T23:25:55.721Z,5.50
2022-08-21T23:31:19.749Z,5.60
2022-08-21T23:37:00.254Z,5.90
2022-08-21T23:42:16.134Z,5.13
2022-08-21T23:47:38.550Z,4.57
2022-08-21T23:52:55.975Z,5.23
2022-08-21T23:58:14.368Z,4.40
